Map

Track Data

SID SEASON NUMBER BASIN SUBBASIN NAME ISO_TIME NATURE LAT LON WMO_WIND WMO_PRES WMO_AGENCY TRACK_TYPE DIST2LAND LANDFALL IFLAG USA_AGENCY USA_ATCF_ID USA_LAT USA_LON USA_RECORD USA_STATUS USA_WIND USA_PRES USA_SSHS USA_R34_NE USA_R34_SE USA_R34_SW USA_R34_NW USA_R50_NE USA_R50_SE USA_R50_SW USA_R50_NW USA_R64_NE USA_R64_SE USA_R64_SW USA_R64_NW USA_POCI USA_ROCI USA_RMW USA_EYE TOKYO_LAT TOKYO_LON TOKYO_GRADE TOKYO_WIND TOKYO_PRES TOKYO_R50_DIR TOKYO_R50_LONG TOKYO_R50_SHORT TOKYO_R30_DIR TOKYO_R30_LONG TOKYO_R30_SHORT TOKYO_LAND CMA_LAT CMA_LON CMA_CAT CMA_WIND CMA_PRES HKO_LAT HKO_LON HKO_CAT HKO_WIND HKO_PRES NEWDELHI_LAT NEWDELHI_LON NEWDELHI_GRADE NEWDELHI_WIND NEWDELHI_PRES NEWDELHI_CI NEWDELHI_DP NEWDELHI_POCI REUNION_LAT REUNION_LON REUNION_TYPE REUNION_WIND REUNION_PRES REUNION_TNUM REUNION_CI REUNION_RMW REUNION_R34_NE REUNION_R34_SE REUNION_R34_SW REUNION_R34_NW REUNION_R50_NE REUNION_R50_SE REUNION_R50_SW REUNION_R50_NW REUNION_R64_NE REUNION_R64_SE REUNION_R64_SW REUNION_R64_NW BOM_LAT BOM_LON BOM_TYPE BOM_WIND BOM_PRES BOM_TNUM BOM_CI BOM_RMW BOM_R34_NE BOM_R34_SE BOM_R34_SW BOM_R34_NW BOM_R50_NE BOM_R50_SE BOM_R50_SW BOM_R50_NW BOM_R64_NE BOM_R64_SE BOM_R64_SW BOM_R64_NW BOM_ROCI BOM_POCI BOM_EYE BOM_POS_METHOD BOM_PRES_METHOD NADI_LAT NADI_LON NADI_CAT NADI_WIND NADI_PRES WELLINGTON_LAT WELLINGTON_LON WELLINGTON_WIND WELLINGTON_PRES DS824_LAT DS824_LON DS824_STAGE DS824_WIND DS824_PRES TD9636_LAT TD9636_LON TD9636_STAGE TD9636_WIND TD9636_PRES TD9635_LAT TD9635_LON TD9635_WIND TD9635_PRES TD9635_ROCI NEUMANN_LAT NEUMANN_LON NEUMANN_CLASS NEUMANN_WIND NEUMANN_PRES MLC_LAT MLC_LON MLC_CLASS MLC_WIND MLC_PRES USA_GUST BOM_GUST BOM_GUST_PER REUNION_GUST REUNION_GUST_PER USA_SEAHGT USA_SEARAD_NE USA_SEARAD_SE USA_SEARAD_SW USA_SEARAD_NW STORM_SPEED STORM_DIR
1956254N20269 1956 87 NA GM DORA 1956-09-10 06:00:00 TS 20.5000 -91.1000 30 hurdat_atl main 62 62 O_____________ hurdat_atl AL051956 20.5000 -91.1000 TD 30 -1 10 287
1956254N20269 1956 87 NA GM DORA 1956-09-10 09:00:00 TS 20.6478 -91.6073 main 115 115 P_____________ AL051956 20.6478 -91.6073 TD 32 -1 10 288
1956254N20269 1956 87 NA GM DORA 1956-09-10 12:00:00 TS 20.8000 -92.1000 35 hurdat_atl main 169 169 O_____________ hurdat_atl AL051956 20.8000 -92.1000 TS 35 0 9 289
1956254N20269 1956 87 NA GM DORA 1956-09-10 15:00:00 TS 20.9574 -92.5650 main 225 225 P_____________ AL051956 20.9574 -92.5650 TS 35 0 9 290
1956254N20269 1956 87 NA GM DORA 1956-09-10 18:00:00 TS 21.1000 -93.0000 35 1010 hurdat_atl main 268 268 O_____________ hurdat_atl AL051956 21.1000 -93.0000 TS 35 1010 0 8 287
1956254N20269 1956 87 NA GM DORA 1956-09-10 21:00:00 TS 21.2074 -93.4226 main 299 299 P_____________ AL051956 21.2074 -93.4226 TS 37 0 8 285
1956254N20269 1956 87 NA GM DORA 1956-09-11 00:00:00 TS 21.3000 -93.8000 40 hurdat_atl main 312 292 O_____________ hurdat_atl AL051956 21.3000 -93.8000 TS 40 0 7 287
1956254N20269 1956 87 NA GM DORA 1956-09-11 03:00:00 TS 21.3999 -94.1151 main 292 274 P_____________ AL051956 21.3999 -94.1151 TS 40 0 6 290
1956254N20269 1956 87 NA GM DORA 1956-09-11 06:00:00 TS 21.5000 -94.4000 40 hurdat_atl main 274 258 O_____________ hurdat_atl AL051956 21.5000 -94.4000 TS 40 0 6 291
1956254N20269 1956 87 NA GM DORA 1956-09-11 09:00:00 TS 21.6150 -94.7075 main 258 237 P_____________ AL051956 21.6150 -94.7075 TS 42 0 6 290
1956254N20269 1956 87 NA GM DORA 1956-09-11 12:00:00 TS 21.7000 -95.0000 45 hurdat_atl main 237 206 O_____________ hurdat_atl AL051956 21.7000 -95.0000 TS 45 0 5 283
1956254N20269 1956 87 NA GM DORA 1956-09-11 15:00:00 TS 21.7300 -95.2650 main 206 186 P_____________ AL051956 21.7300 -95.2650 TS 45 0 5 270
1956254N20269 1956 87 NA GM DORA 1956-09-11 18:00:00 TS 21.7000 -95.5000 45 1004 hurdat_atl main 186 165 O_____________ hurdat_atl AL051956 21.7000 -95.5000 TS 45 1004 0 4 254
1956254N20269 1956 87 NA GM DORA 1956-09-11 21:00:00 TS 21.6149 -95.7075 main 165 145 P_____________ AL051956 21.6149 -95.7075 TS 45 0 4 242
1956254N20269 1956 87 NA GM DORA 1956-09-12 00:00:00 TS 21.5000 -95.9000 45 hurdat_atl main 145 126 O_____________ hurdat_atl AL051956 21.5000 -95.9000 TS 45 0 4 239
1956254N20269 1956 87 NA GM DORA 1956-09-12 03:00:00 TS 21.3999 -96.0925 main 126 108 P_____________ AL051956 21.3999 -96.0925 TS 47 0 4 242
1956254N20269 1956 87 NA GM DORA 1956-09-12 06:00:00 TS 21.3000 -96.3000 50 hurdat_atl main 108 89 O_____________ hurdat_atl AL051956 21.3000 -96.3000 TS 50 0 5 245
1956254N20269 1956 87 NA GM DORA 1956-09-12 09:00:00 TS 21.2000 -96.5425 main 89 56 P_____________ AL051956 21.2000 -96.5425 TS 50 0 5 247
1956254N20269 1956 87 NA GM DORA 1956-09-12 12:00:00 TS 21.1000 -96.8000 50 1004 hurdat_atl main 56 33 O_____________ hurdat_atl AL051956 21.1000 -96.8000 TS 50 1004 0 5 247
1956254N20269 1956 87 NA GM DORA 1956-09-12 15:00:00 TS 21.0000 -97.0500 main 33 0 P_____________ AL051956 21.0000 -97.0500 TS 50 1002 0 5 247
1956254N20269 1956 87 NA NA DORA 1956-09-12 18:00:00 TS 20.9000 -97.3000 50 1000 hurdat_atl main 0 0 O_____________ hurdat_atl AL051956 20.9000 -97.3000 L TS 50 1000 0 5 247
1956254N20269 1956 87 NA NA DORA 1956-09-12 21:00:00 TS 20.8001 -97.5501 main 0 0 P_____________ AL051956 20.8001 -97.5501 TS 37 0 5 247
1956254N20269 1956 87 NA NA DORA 1956-09-13 00:00:00 TS 20.7000 -97.8000 25 hurdat_atl main 0 O_____________ hurdat_atl AL051956 20.7000 -97.8000 TD 25 -1 5 247

About IBTrACS Database

This database is a web-friendly format of International Best Track Archive for Climate Stewardship (IBTrACS), a global best track data archive curated by NOAA dating back to 1842.

Updated: 2021-10-08